Terminal Aerodrome Forecast
Issued by NWS Quad Cities IA IL

Home | Current Version | Previous Version | Text Only | Print | Product List | Glossary On
Versions: 1 2 3 4 5 6 7 8 9 10 11 12 13 14 15 16 17 18 19 20
000
FTUS43 KDVN 261440 CCA
TAFMLI
TAF COR
KMLI 261440Z 2613/2712 14012KT 6SM -SHRA BR BKN015 OVC050
      TEMPO 2614/2615 23015G25KT 1SM SHRA BR SCT008 OVC010
     FM261600 18012KT P6SM SCT025 BKN035
     FM261900 22013G19KT P6SM BKN040
     FM270100 23006KT P6SM SCT050 BKN250=

USA.gov is the U.S. government's official web portal to all federal, state and local government web resources and services.